Time;durP1;ratioP1;P1;durP2;ratioP2;P2;SDS_P1;SDS_P2;PMS_P1;PMS_P2;Temp;Humidity;BMP_temperature;BMP_pressure;BME280_temperature;BME280_humidity;BME280_pressure;Samples;Min_cycle;Max_cycle;Signal;HPM_P1;HPM_P2
2023/03/30 00:01:23;;;;;;;32.35;9.40;;;;;;;6.74;70.97;100478.38;4947618;27;20070;-61
2023/03/30 00:03:55;;;;;;;30.13;9.02;;;;;;;6.87;70.85;100480.13;4940346;27;20503;-61
2023/03/30 00:06:26;;;;;;;22.30;8.80;;;;;;;6.96;70.63;100483.59;4947158;27;20446;-60
2023/03/30 00:09:04;;;;;;;29.92;8.40;;;;;;;7.00;70.22;100474.97;4947682;27;20066;-60
2023/03/30 00:11:36;;;;;;;28.70;9.32;;;;;;;7.02;69.40;100475.84;4938149;27;20058;-59
2023/03/30 00:14:08;;;;;;;29.00;8.75;;;;;;;7.14;69.29;100473.25;4948584;27;20062;-59
2023/03/30 00:16:40;;;;;;;28.73;8.90;;;;;;;7.16;69.00;100471.50;4948387;27;20463;-61
2023/03/30 00:19:12;;;;;;;31.05;8.45;;;;;;;7.20;68.92;100473.25;4948889;27;20057;-62
2023/03/30 00:21:44;;;;;;;22.35;8.18;;;;;;;7.20;68.34;100483.66;4940600;27;20055;-61
2023/03/30 00:24:17;;;;;;;31.75;8.35;;;;;;;7.34;68.21;100487.13;4947650;27;20486;-61
2023/03/30 00:26:49;;;;;;;28.15;7.70;;;;;;;7.38;67.58;100476.72;4947224;28;20047;-60
2023/03/30 00:29:24;;;;;;;28.60;9.20;;;;;;;7.48;67.33;100481.06;4945700;27;20051;-59
2023/03/30 00:31:56;;;;;;;28.08;9.25;;;;;;;7.39;67.10;100476.75;4938192;27;21471;-59
2023/03/30 00:34:27;;;;;;;28.98;8.82;;;;;;;7.49;66.79;100465.47;4947136;27;20043;-59
2023/03/30 00:36:58;;;;;;;18.13;8.75;;;;;;;7.44;65.86;100466.31;4946163;28;20055;-61
2023/03/30 00:39:32;;;;;;;24.98;8.25;;;;;;;7.80;65.60;100480.16;4943787;27;20035;-63
2023/03/30 00:42:04;;;;;;;34.58;9.90;;;;;;;7.96;65.14;100476.66;4947030;27;20049;-62
2023/03/30 00:45:07;;;;;;;26.95;8.80;;;;;;;8.07;64.55;100490.50;4947119;27;20717;-62
2023/03/30 00:47:41;;;;;;;23.30;7.47;;;;;;;7.81;64.29;100492.28;4936779;27;20071;-62
2023/03/30 00:50:13;;;;;;;28.52;8.32;;;;;;;7.52;64.85;100493.19;4947736;27;20044;-62
2023/03/30 00:52:46;;;;;;;27.77;9.50;;;;;;;7.38;65.36;100492.31;4939697;27;20445;-62
2023/03/30 00:55:22;;;;;;;30.98;8.60;;;;;;;7.28;65.60;100489.72;4947687;27;20131;-62
2023/03/30 00:57:55;;;;;;;31.23;7.85;;;;;;;7.00;66.28;100480.16;4945159;28;20111;-61
2023/03/30 01:00:29;;;;;;;24.00;9.15;;;;;;;7.06;66.13;100485.34;4943884;28;20446;-62
2023/03/30 01:03:06;;;;;;;21.42;8.13;;;;;;;6.89;66.50;100481.00;4946175;27;20047;-61
2023/03/30 01:05:40;;;;;;;25.33;7.55;;;;;;;6.90;66.50;100466.28;4935763;27;20525;-62
2023/03/30 01:08:15;;;;;;;24.52;8.00;;;;;;;6.88;65.98;100466.28;4946907;27;20504;-62
2023/03/30 01:10:49;;;;;;;26.35;9.18;;;;;;;6.89;66.44;100478.41;4936286;28;20063;-63
2023/03/30 01:13:21;;;;;;;28.00;8.23;;;;;;;6.76;66.57;100455.00;4945274;27;20059;-63
2023/03/30 01:16:02;;;;;;;28.85;8.30;;;;;;;6.83;66.79;100475.78;4946238;27;20362;-64
2023/03/30 01:18:47;;;;;;;27.33;9.02;;;;;;;6.73;66.16;100440.28;4933633;27;20060;-59
2023/03/30 01:21:54;;;;;;;24.10;8.60;;;;;;;7.07;65.98;100471.50;4935704;27;20116;-62
2023/03/30 01:25:01;;;;;;;23.13;8.50;;;;;;;7.15;65.63;100464.59;4933372;28;20393;-64
2023/03/30 01:28:18;;;;;;;31.85;8.88;;;;;;;7.03;65.71;100474.97;4939618;28;20075;-63
2023/03/30 01:31:26;;;;;;;29.55;8.02;;;;;;;7.22;65.08;100471.53;4934043;27;20035;-59
2023/03/30 01:34:26;;;;;;;30.88;8.38;;;;;;;7.09;65.63;100443.81;4934903;28;20099;-62
2023/03/30 01:37:26;;;;;;;26.73;8.95;;;;;;;7.19;65.56;100461.13;4925626;27;20495;-63
2023/03/30 01:40:08;;;;;;;23.37;8.80;;;;;;;7.19;65.15;100461.13;4923275;28;20073;-62
2023/03/30 01:42:44;;;;;;;31.45;8.95;;;;;;;7.30;65.24;100459.38;4935929;28;20293;-64
2023/03/30 01:45:21;;;;;;;31.60;8.60;;;;;;;7.30;64.78;100464.59;4937864;28;20307;-63
2023/03/30 01:47:59;;;;;;;24.60;9.90;;;;;;;7.39;64.77;100452.44;4946056;28;20443;-63
2023/03/30 01:50:38;;;;;;;31.52;9.38;;;;;;;7.56;64.38;100449.00;4936599;28;20072;-65
2023/03/30 01:53:16;;;;;;;25.25;8.75;;;;;;;7.77;63.50;100445.47;4934762;28;20039;-63
2023/03/30 01:55:56;;;;;;;37.63;9.25;;;;;;;7.90;63.13;100442.84;4931098;28;20055;-64
2023/03/30 01:58:33;;;;;;;32.78;9.60;;;;;;;8.01;62.82;100448.88;4935055;28;20044;-63
2023/03/30 02:01:06;;;;;;;21.67;8.77;;;;;;;8.24;62.23;100434.91;4941673;28;20154;-63
2023/03/30 02:03:42;;;;;;;24.52;8.70;;;;;;;8.21;62.02;100428.88;4945740;28;20071;-61
2023/03/30 02:06:19;;;;;;;35.45;9.13;;;;;;;8.07;62.02;100438.47;4943538;28;20514;-63
2023/03/30 02:08:53;;;;;;;22.95;8.35;;;;;;;7.97;62.27;100441.97;4946763;27;20048;-63
2023/03/30 02:11:28;;;;;;;26.42;8.15;;;;;;;7.86;62.51;100417.69;4946017;27;20052;-63
2023/03/30 02:14:01;;;;;;;22.73;8.10;;;;;;;7.95;62.49;100438.50;4948627;27;20071;-63
2023/03/30 02:16:37;;;;;;;27.83;8.82;;;;;;;7.88;62.39;100426.38;4948735;27;20517;-64
2023/03/30 02:19:09;;;;;;;25.30;8.70;;;;;;;7.82;62.55;100432.47;4940729;27;20079;-61
2023/03/30 02:21:41;;;;;;;26.48;8.43;;;;;;;7.76;62.58;100438.56;4950258;27;20392;-63
2023/03/30 02:24:18;;;;;;;24.95;8.85;;;;;;;7.70;63.21;100433.34;4949304;27;20059;-64
2023/03/30 02:26:52;;;;;;;24.48;8.55;;;;;;;7.80;62.95;100425.53;4938669;27;20043;-63
2023/03/30 02:29:24;;;;;;;33.40;9.40;;;;;;;7.84;63.07;100440.25;4948564;27;20052;-63
2023/03/30 02:31:59;;;;;;;29.15;9.45;;;;;;;7.83;62.98;100422.91;4952233;27;20117;-64
2023/03/30 02:34:51;;;;;;;29.63;8.55;;;;;;;7.62;62.53;100393.50;4950545;27;20137;-63
2023/03/30 02:37:50;;;;;;;35.38;9.65;;;;;;;7.66;63.04;100418.66;4938371;27;20105;-64
2023/03/30 02:40:34;;;;;;;25.13;8.77;;;;;;;7.68;63.15;100414.28;4949351;27;20470;-62
2023/03/30 02:43:21;;;;;;;25.88;8.73;;;;;;;7.70;62.70;100402.13;4923518;27;20237;-63
2023/03/30 02:46:00;;;;;;;21.33;9.32;;;;;;;7.88;62.27;100418.56;4939061;27;20552;-64
2023/03/30 02:48:41;;;;;;;25.50;9.10;;;;;;;7.38;61.82;100320.75;4939499;27;20047;-64
2023/03/30 02:51:26;;;;;;;36.08;9.48;;;;;;;7.96;61.71;100403.78;4937281;27;20052;-61
2023/03/30 02:54:04;;;;;;;23.10;8.50;;;;;;;7.96;61.89;100393.38;4959650;27;20055;-62
2023/03/30 02:56:42;;;;;;;27.17;9.20;;;;;;;7.96;61.59;100398.59;4928258;27;20055;-61
2023/03/30 02:59:21;;;;;;;27.38;8.75;;;;;;;7.59;61.68;100357.09;4947275;27;20049;-63
2023/03/30 03:01:58;;;;;;;37.30;9.75;;;;;;;7.62;62.13;100357.09;4950614;27;20407;-61
2023/03/30 03:04:33;;;;;;;31.73;9.00;;;;;;;7.77;61.56;100371.78;4938531;27;20123;-59
2023/03/30 03:07:05;;;;;;;31.73;9.98;;;;;;;7.72;61.58;100383.94;4943037;27;20444;-64
2023/03/30 03:09:37;;;;;;;25.95;10.35;;;;;;;7.57;61.64;100385.69;4944092;27;20497;-60
2023/03/30 03:12:09;;;;;;;25.67;9.05;;;;;;;7.56;61.96;100381.38;4949639;27;20531;-60
2023/03/30 03:14:42;;;;;;;22.52;8.32;;;;;;;7.57;61.53;100379.63;4949172;27;20039;-64
2023/03/30 03:17:20;;;;;;;22.92;9.43;;;;;;;7.49;61.90;100377.06;4946499;27;20076;-63
2023/03/30 03:19:52;;;;;;;26.80;8.18;;;;;;;7.63;62.18;100369.22;4949117;27;20090;-62
2023/03/30 03:22:24;;;;;;;22.85;8.77;;;;;;;7.66;61.69;100371.81;4947382;27;20128;-62
2023/03/30 03:24:55;;;;;;;27.33;10.15;;;;;;;7.61;61.74;100360.53;4950622;27;21170;-62
2023/03/30 03:27:27;;;;;;;26.52;9.13;;;;;;;7.44;61.37;100333.72;4948365;27;20517;-60
2023/03/30 03:30:00;;;;;;;25.27;8.45;;;;;;;7.65;61.26;100362.28;4949959;27;20104;-62
2023/03/30 03:32:32;;;;;;;27.10;8.60;;;;;;;7.55;61.39;100360.56;4948899;27;20113;-63
2023/03/30 03:35:04;;;;;;;34.55;9.65;;;;;;;7.37;61.94;100339.81;4946024;27;20040;-62
2023/03/30 03:37:35;;;;;;;24.65;8.60;;;;;;;7.64;61.73;100354.47;4951396;27;20601;-63
2023/03/30 03:40:08;;;;;;;26.10;8.73;;;;;;;7.86;61.00;100352.66;4948370;27;20465;-62
2023/03/30 03:42:40;;;;;;;34.53;9.55;;;;;;;7.90;60.86;100347.44;4947741;27;20051;-63
2023/03/30 03:45:14;;;;;;;35.88;9.73;;;;;;;7.88;60.16;100353.53;4947902;27;20082;-60
2023/03/30 03:47:46;;;;;;;29.77;8.73;;;;;;;7.76;60.41;100365.72;4935912;27;20472;-61
2023/03/30 03:50:17;;;;;;;25.63;9.68;;;;;;;7.34;60.62;100305.16;4946961;27;20047;-63
2023/03/30 03:52:49;;;;;;;26.60;9.90;;;;;;;7.51;60.80;100364.94;4948498;27;20552;-60
2023/03/30 03:55:21;;;;;;;25.35;9.88;;;;;;;7.41;61.10;100362.31;4946675;27;20055;-62
2023/03/30 03:57:52;;;;;;;26.42;9.02;;;;;;;7.14;61.88;100353.72;4943707;27;20039;-61
2023/03/30 04:00:26;;;;;;;25.30;8.70;;;;;;;7.00;62.44;100366.72;4945251;27;21261;-62
2023/03/30 04:03:00;;;;;;;25.27;9.02;;;;;;;6.75;62.67;100373.63;4942299;27;20047;-61
2023/03/30 04:05:32;;;;;;;27.60;9.50;;;;;;;6.64;63.24;100364.94;4946266;27;20047;-63
2023/03/30 04:08:04;;;;;;;27.40;9.80;;;;;;;6.60;63.64;100350.25;4946262;27;20237;-62
2023/03/30 04:10:35;;;;;;;28.63;10.05;;;;;;;6.69;63.29;100355.47;4950859;27;20052;-62
2023/03/30 04:13:07;;;;;;;33.47;9.88;;;;;;;6.84;62.78;100376.25;4947961;27;20500;-61
2023/03/30 04:15:40;;;;;;;31.73;9.43;;;;;;;6.85;62.82;100362.38;4942339;28;20082;-61
2023/03/30 04:18:11;;;;;;;28.48;9.90;;;;;;;6.98;62.82;100362.38;4948361;27;20898;-63
2023/03/30 04:20:43;;;;;;;30.60;9.25;;;;;;;7.05;62.86;100351.97;4944735;27;20058;-60
2023/03/30 04:23:20;;;;;;;23.90;9.00;;;;;;;7.07;62.61;100363.25;4924722;27;21983;-62
2023/03/30 04:25:52;;;;;;;25.08;9.05;;;;;;;7.10;62.57;100351.97;4949157;27;20067;-62
2023/03/30 04:28:24;;;;;;;25.30;9.27;;;;;;;7.15;62.70;100349.38;4945470;27;20059;-61
2023/03/30 04:31:02;;;;;;;25.63;9.13;;;;;;;7.29;62.39;100358.91;4948429;27;20201;-61
2023/03/30 04:33:34;;;;;;;33.35;9.23;;;;;;;7.31;62.10;100346.78;4948066;27;20960;-63
2023/03/30 04:36:06;;;;;;;37.75;9.52;;;;;;;7.22;62.46;100340.72;4938738;27;20055;-61
2023/03/30 04:38:41;;;;;;;32.78;9.70;;;;;;;7.10;62.85;100336.38;4945751;27;20160;-62
2023/03/30 04:41:14;;;;;;;32.95;9.98;;;;;;;6.90;63.83;100334.66;4942634;27;20400;-61
2023/03/30 04:43:46;;;;;;;27.15;9.45;;;;;;;6.23;63.90;100230.81;4937770;27;20142;-62
2023/03/30 04:46:19;;;;;;;30.55;9.38;;;;;;;6.74;64.33;100325.16;4943725;28;20466;-61
2023/03/30 04:48:51;;;;;;;30.65;9.68;;;;;;;6.73;64.11;100319.97;4946170;27;20052;-61
2023/03/30 04:51:23;;;;;;;35.33;9.07;;;;;;;6.58;64.80;100320.81;4948566;27;20043;-63
2023/03/30 04:53:55;;;;;;;24.85;8.98;;;;;;;6.55;65.04;100326.00;4941939;27;20494;-62
2023/03/30 04:56:27;;;;;;;29.00;8.85;;;;;;;6.49;64.96;100321.69;4946899;27;20055;-62
2023/03/30 04:58:58;;;;;;;35.63;10.32;;;;;;;6.36;65.35;100323.38;4942618;28;20048;-61
2023/03/30 05:01:32;;;;;;;23.77;9.10;;;;;;;6.17;65.65;100313.84;4947492;27;20087;-61
2023/03/30 05:04:04;;;;;;;30.88;8.68;;;;;;;6.16;66.46;100312.09;4940549;27;20082;-62
2023/03/30 05:06:35;;;;;;;27.25;9.32;;;;;;;6.18;66.41;100310.38;4938553;27;20128;-62
2023/03/30 05:09:06;;;;;;;29.58;9.45;;;;;;;6.18;66.69;100305.19;4947233;27;20461;-62
2023/03/30 05:11:41;;;;;;;27.20;9.05;;;;;;;5.78;66.80;100247.97;4945980;27;20143;-62
2023/03/30 05:14:12;;;;;;;37.17;9.70;;;;;;;6.13;67.12;100309.50;4944269;28;20144;-61
2023/03/30 05:16:45;;;;;;;33.83;10.25;;;;;;;6.04;67.65;100313.81;4941886;27;20507;-61
2023/03/30 05:19:17;;;;;;;28.67;10.05;;;;;;;5.91;68.16;100309.38;4942804;27;20547;-61
2023/03/30 05:21:49;;;;;;;28.75;9.60;;;;;;;5.52;69.04;100269.50;4945083;28;20521;-60
2023/03/30 05:24:20;;;;;;;32.28;10.07;;;;;;;5.72;69.14;100320.56;4947479;27;20100;-60
2023/03/30 05:26:52;;;;;;;30.63;11.00;;;;;;;5.60;69.74;100317.06;4945996;27;20051;-62
2023/03/30 05:29:23;;;;;;;34.38;10.55;;;;;;;5.50;70.23;100319.59;4947425;27;20081;-61
2023/03/30 05:31:56;;;;;;;39.53;10.27;;;;;;;5.41;70.60;100330.75;4934821;28;20056;-61
2023/03/30 05:34:28;;;;;;;28.55;10.05;;;;;;;4.84;70.87;100238.91;4931158;28;20111;-61
2023/03/30 05:37:00;;;;;;;36.58;10.90;;;;;;;5.27;71.63;100322.06;4935868;28;20054;-61
2023/03/30 05:39:31;;;;;;;37.92;12.50;;;;;;;5.26;71.47;100315.13;4946861;28;20051;-60
2023/03/30 05:42:04;;;;;;;36.63;12.07;;;;;;;5.25;71.68;100318.59;4946164;28;20048;-59
2023/03/30 05:44:37;;;;;;;43.67;11.35;;;;;;;5.22;72.53;100318.56;4941425;27;20048;-61
2023/03/30 05:47:09;;;;;;;32.55;11.45;;;;;;;5.21;72.58;100327.19;4947351;27;20062;-61
2023/03/30 05:49:45;;;;;;;36.47;11.75;;;;;;;5.15;73.08;100310.75;4953519;27;20612;-60
2023/03/30 05:52:18;;;;;;;38.50;12.65;;;;;;;5.10;73.39;100319.38;4942152;27;20050;-59
2023/03/30 05:54:51;;;;;;;37.60;11.05;;;;;;;5.05;73.76;100321.91;4952586;27;20047;-61
2023/03/30 05:57:22;;;;;;;33.95;11.70;;;;;;;4.98;74.15;100314.97;4950456;27;20362;-60
2023/03/30 05:59:55;;;;;;;42.63;12.45;;;;;;;4.94;74.51;100313.19;4938474;27;20138;-61
2023/03/30 06:02:27;;;;;;;34.47;12.73;;;;;;;4.88;75.13;100314.00;4953762;27;20116;-61
2023/03/30 06:05:00;;;;;;;40.95;12.23;;;;;;;4.88;75.58;100308.84;4954655;27;20420;-59
2023/03/30 06:07:30;;;;;;;40.13;11.27;;;;;;;4.84;75.48;100306.22;4952138;27;20114;-60
2023/03/30 06:10:07;;;;;;;34.83;12.77;;;;;;;4.80;75.97;100300.16;4951192;27;20094;-60
2023/03/30 06:12:43;;;;;;;38.88;12.85;;;;;;;4.85;76.19;100297.59;4935218;27;20218;-60
2023/03/30 06:15:15;;;;;;;38.55;12.85;;;;;;;4.87;76.27;100285.53;4947438;27;20053;-60
2023/03/30 06:17:53;;;;;;;45.85;13.05;;;;;;;4.93;76.76;100285.56;4953216;27;20049;-60
2023/03/30 06:20:24;;;;;;;39.63;15.13;;;;;;;4.89;77.07;100288.97;4960274;27;20052;-59
2023/03/30 06:22:55;;;;;;;52.70;15.50;;;;;;;4.92;77.31;100286.44;4953751;27;20466;-58
2023/03/30 06:25:26;;;;;;;36.22;13.65;;;;;;;4.96;77.54;100280.41;4953032;27;20055;-60
2023/03/30 06:27:56;;;;;;;41.05;11.85;;;;;;;4.99;77.88;100277.81;4951621;27;20071;-60
2023/03/30 06:30:28;;;;;;;29.33;11.55;;;;;;;4.99;78.11;100283.00;4953202;27;20063;-60
2023/03/30 06:33:00;;;;;;;26.02;10.85;;;;;;;4.96;78.23;100278.69;4950760;27;20127;-60
2023/03/30 06:35:31;;;;;;;33.08;11.27;;;;;;;4.89;78.36;100265.69;4949266;27;20063;-60
2023/03/30 06:38:02;;;;;;;27.23;10.25;;;;;;;4.94;78.11;100277.81;4951555;27;20865;-60
2023/03/30 06:40:33;;;;;;;33.20;11.15;;;;;;;4.72;78.60;100245.75;4953725;27;20043;-59
2023/03/30 06:43:03;;;;;;;44.15;11.52;;;;;;;4.79;78.89;100266.47;4950730;27;20060;-59
2023/03/30 06:45:34;;;;;;;43.83;11.93;;;;;;;4.70;79.42;100268.16;4953795;27;20716;-59
2023/03/30 06:48:07;;;;;;;34.45;11.23;;;;;;;4.71;79.11;100275.03;4951386;27;20142;-60
2023/03/30 06:50:39;;;;;;;28.02;11.30;;;;;;;4.68;79.34;100275.03;4952412;27;20055;-60
2023/03/30 06:53:10;;;;;;;36.72;10.85;;;;;;;4.68;79.33;100258.66;4952720;27;20092;-60
2023/03/30 06:55:45;;;;;;;35.20;11.88;;;;;;;4.70;79.55;100267.28;4949934;27;20048;-60
2023/03/30 06:58:30;;;;;;;36.50;11.10;;;;;;;4.69;79.44;100266.44;4937561;27;20146;-58
2023/03/30 07:01:09;;;;;;;44.78;14.35;;;;;;;4.48;79.40;100219.69;4949959;27;20043;-59
2023/03/30 07:03:41;;;;;;;52.05;18.17;;;;;;;4.73;79.09;100260.41;4931515;27;20035;-59
2023/03/30 07:06:13;;;;;;;55.72;17.98;;;;;;;4.70;79.23;100257.81;4947374;27;20051;-59
2023/03/30 07:08:44;;;;;;;60.72;18.98;;;;;;;4.66;79.36;100250.84;4946433;27;20053;-60
2023/03/30 07:11:15;;;;;;;51.15;17.23;;;;;;;4.58;79.30;100242.19;4947021;27;20112;-59
2023/03/30 07:13:47;;;;;;;42.45;14.93;;;;;;;4.42;79.97;100235.13;4944950;27;20071;-59
2023/03/30 07:16:18;;;;;;;38.75;14.25;;;;;;;4.46;80.17;100247.25;4949152;27;20048;-59
2023/03/30 07:18:52;;;;;;;37.33;13.68;;;;;;;4.36;80.48;100240.28;4945567;27;20561;-59
2023/03/30 07:21:23;;;;;;;30.63;12.70;;;;;;;4.27;80.48;100231.59;4946756;27;20797;-59
2023/03/30 07:23:55;;;;;;;34.95;12.07;;;;;;;4.31;80.94;100253.16;4950820;27;20048;-60
2023/03/30 07:26:29;;;;;;;40.75;13.80;;;;;;;4.35;81.14;100248.91;4949756;27;20039;-59
2023/03/30 07:29:00;;;;;;;42.63;13.30;;;;;;;4.39;80.95;100255.81;4947998;27;20058;-59
2023/03/30 07:31:32;;;;;;;36.83;14.27;;;;;;;4.38;80.90;100256.69;4948635;27;20179;-59
2023/03/30 07:34:06;;;;;;;47.22;14.95;;;;;;;4.38;80.97;100251.50;4950303;27;20060;-59
2023/03/30 07:36:37;;;;;;;41.60;13.98;;;;;;;4.39;81.29;100248.91;4938381;27;20096;-59
2023/03/30 07:39:09;;;;;;;50.20;15.75;;;;;;;4.46;81.10;100257.59;4948378;27;20047;-59
2023/03/30 07:41:41;;;;;;;35.53;14.43;;;;;;;4.46;81.51;100262.78;4948855;27;20052;-59
2023/03/30 07:44:13;;;;;;;36.90;13.18;;;;;;;4.45;81.46;100261.06;4947991;27;20031;-59
2023/03/30 07:46:44;;;;;;;34.88;14.20;;;;;;;4.43;81.68;100249.81;4945505;27;20128;-59
2023/03/30 07:49:18;;;;;;;45.47;12.60;;;;;;;4.41;81.64;100254.97;4949914;27;20048;-59
2023/03/30 07:51:49;;;;;;;34.75;12.98;;;;;;;4.47;81.83;100254.19;4947987;27;20591;-59
2023/03/30 07:54:21;;;;;;;54.55;14.73;;;;;;;4.51;82.03;100263.69;4948076;27;20438;-59
2023/03/30 07:56:54;;;;;;;40.75;13.90;;;;;;;4.44;82.22;100254.13;4943368;27;20059;-60
2023/03/30 07:59:26;;;;;;;33.10;12.95;;;;;;;4.21;82.32;100225.47;4948656;27;20062;-60
2023/03/30 08:01:57;;;;;;;36.22;11.98;;;;;;;4.43;82.86;100260.16;4950082;27;20046;-59
2023/03/30 08:04:31;;;;;;;35.90;13.35;;;;;;;4.26;82.83;100235.00;4948035;27;20051;-59
2023/03/30 08:07:03;;;;;;;36.20;12.32;;;;;;;4.44;83.29;100264.47;4947333;27;20075;-59
2023/03/30 08:09:35;;;;;;;45.45;13.68;;;;;;;4.40;83.13;100262.75;4940968;27;20595;-58
2023/03/30 08:12:07;;;;;;;40.53;12.68;;;;;;;4.33;83.32;100257.50;4948966;27;20047;-59
2023/03/30 08:14:39;;;;;;;42.70;13.77;;;;;;;4.30;83.37;100251.44;4947520;27;20474;-59
2023/03/30 08:17:10;;;;;;;42.20;13.38;;;;;;;4.24;83.35;100241.91;4949133;27;20048;-59
2023/03/30 08:19:44;;;;;;;43.70;13.48;;;;;;;4.21;83.37;100239.28;4948589;27;20059;-59
2023/03/30 08:22:15;;;;;;;36.10;13.80;;;;;;;4.21;84.05;100235.81;4940487;27;20464;-59
2023/03/30 08:24:46;;;;;;;42.10;13.45;;;;;;;4.30;84.47;100257.47;4949041;27;20458;-59
2023/03/30 08:27:18;;;;;;;43.15;14.65;;;;;;;4.32;85.30;100245.44;4948622;27;20172;-59
2023/03/30 08:29:53;;;;;;;46.97;14.98;;;;;;;4.30;85.58;100244.53;4947017;27;20044;-59
2023/03/30 08:32:25;;;;;;;40.40;14.90;;;;;;;4.31;85.61;100235.91;4942593;27;20771;-60
2023/03/30 08:34:59;;;;;;;38.60;14.20;;;;;;;4.37;85.79;100250.66;4949230;27;20098;-59
2023/03/30 08:37:31;;;;;;;48.38;14.48;;;;;;;4.29;85.91;100250.59;4948484;27;20349;-59
2023/03/30 08:40:05;;;;;;;41.13;13.25;;;;;;;4.27;85.94;100260.03;4946524;27;20864;-59
2023/03/30 08:43:05;;;;;;;40.95;13.70;;;;;;;4.23;86.64;100255.69;4937507;27;20043;-59
2023/03/30 08:45:37;;;;;;;;;;;;;;;4.27;86.81;100257.44;4928655;27;20069;-59
2023/03/30 08:48:18;;;;;;;42.63;13.73;;;;;;;4.16;86.72;100248.72;4946939;27;19955;-59
2023/03/30 08:50:57;;;;;;;36.47;14.07;;;;;;;3.93;87.44;100193.34;4937211;27;20122;-59
2023/03/30 08:53:31;;;;;;;54.28;15.27;;;;;;;4.29;87.45;100271.28;4936513;27;20079;-58
2023/03/30 08:56:08;;;;;;;45.92;14.50;;;;;;;4.24;87.38;100236.75;4947793;27;20099;-59
2023/03/30 08:58:46;;;;;;;40.78;14.05;;;;;;;4.32;87.90;100232.50;4936401;27;20459;-59
2023/03/30 09:01:23;;;;;;;44.63;13.07;;;;;;;3.79;88.21;100147.53;4936547;27;20059;-59
2023/03/30 09:04:07;;;;;;;46.03;14.75;;;;;;;4.29;88.83;100224.72;4937103;27;20360;-59
2023/03/30 09:06:51;;;;;;;49.17;13.85;;;;;;;4.41;88.67;100217.88;4935124;28;20118;-59
2023/03/30 09:09:26;;;;;;;37.20;13.18;;;;;;;4.54;88.46;100211.94;4936799;27;20087;-60
2023/03/30 09:12:04;;;;;;;42.90;12.80;;;;;;;4.58;88.32;100216.28;4936418;27;20332;-60
2023/03/30 09:14:40;;;;;;;40.08;12.77;;;;;;;4.60;88.15;100209.41;4938466;28;20040;-59
2023/03/30 09:17:16;;;;;;;39.85;13.75;;;;;;;4.70;88.41;100200.84;4947877;27;20047;-59
2023/03/30 09:19:55;;;;;;;41.00;12.07;;;;;;;4.65;88.40;100184.44;4936905;27;20051;-59
2023/03/30 09:22:36;;;;;;;40.63;12.77;;;;;;;4.78;88.57;100197.44;4936292;27;20047;-59
2023/03/30 09:30:27;;;;;;;36.70;12.57;;;;;;;4.89;88.98;100206.13;6006712;23;20025;-60
2023/03/30 09:33:04;;;;;;;39.15;12.88;;;;;;;4.92;89.37;100195.81;4885074;28;20052;-60
2023/03/30 09:35:41;;;;;;;40.95;12.70;;;;;;;4.98;89.28;100211.38;4892993;28;20425;-59
2023/03/30 09:38:15;;;;;;;39.60;12.35;;;;;;;5.04;89.73;100201.06;4902228;28;20044;-59
2023/03/30 09:41:06;;;;;;;46.05;15.00;;;;;;;5.10;89.83;100203.66;4894211;28;20102;-59
2023/03/30 09:43:43;;;;;;;44.30;13.07;;;;;;;5.13;89.31;100211.44;4894829;28;20150;-60
2023/03/30 09:46:19;;;;;;;45.70;13.88;;;;;;;5.18;89.29;100209.75;4900911;28;20057;-59
2023/03/30 09:48:52;;;;;;;41.95;13.73;;;;;;;4.99;89.14;100176.84;4904294;28;20076;-59
2023/03/30 09:51:26;;;;;;;43.55;13.35;;;;;;;4.81;89.43;100159.50;4904475;28;20075;-59
2023/03/30 09:54:04;;;;;;;43.33;12.32;;;;;;;5.24;89.57;100228.75;4893568;28;20439;-59
2023/03/30 09:56:45;;;;;;;43.60;11.75;;;;;;;5.19;89.46;100221.84;4893862;28;20470;-59
2023/03/30 09:59:31;;;;;;;40.05;12.88;;;;;;;5.23;89.90;100232.22;4893693;28;20045;-60
2023/03/30 10:02:20;;;;;;;47.58;14.13;;;;;;;5.25;90.20;100240.88;4892051;28;20458;-59
2023/03/30 10:05:02;;;;;;;46.15;13.15;;;;;;;5.16;90.52;100237.34;4881811;28;20524;-60
2023/03/30 10:07:40;;;;;;;39.88;12.60;;;;;;;5.01;90.79;100216.56;4882106;28;25126;-59
2023/03/30 10:10:32;;;;;;;38.30;12.88;;;;;;;5.05;90.55;100233.88;4917786;28;20452;-58
2023/03/30 10:13:08;;;;;;;52.65;13.68;;;;;;;5.02;91.27;100239.03;4897998;28;20055;-60
2023/03/30 10:15:42;;;;;;;57.85;16.73;;;;;;;4.99;91.47;100233.81;4895650;28;20044;-60
2023/03/30 10:18:25;;;;;;;53.15;14.48;;;;;;;5.02;92.77;100254.56;4902296;28;21307;-60
2023/03/30 10:21:18;;;;;;;47.75;15.23;;;;;;;4.93;93.03;100244.16;4893511;28;20048;-60
2023/03/30 10:24:07;;;;;;;40.30;14.00;;;;;;;4.89;94.06;100243.28;4896150;28;20133;-59
2023/03/30 10:26:47;;;;;;;52.50;15.10;;;;;;;4.84;94.06;100275.13;4896550;28;22361;-59
2023/03/30 10:29:20;;;;;;;50.40;14.70;;;;;;;4.73;94.38;100247.47;4886345;28;20458;-59
2023/03/30 10:32:01;;;;;;;47.38;13.20;;;;;;;4.75;95.16;100245.75;4899276;28;20079;-60
2023/03/30 10:34:39;;;;;;;41.70;13.55;;;;;;;4.72;95.71;100239.69;4902858;28;20548;-60
2023/03/30 10:37:15;;;;;;;42.58;13.40;;;;;;;4.76;96.29;100247.47;4896575;28;20040;-60
2023/03/30 10:39:48;;;;;;;43.10;12.95;;;;;;;4.71;96.38;100254.34;4893957;28;20368;-59
2023/03/30 10:42:25;;;;;;;41.63;13.35;;;;;;;4.62;97.09;100249.13;4908607;28;20179;-59
2023/03/30 10:44:58;;;;;;;52.47;13.75;;;;;;;4.50;97.96;100243.84;4897427;28;20124;-59
2023/03/30 10:47:47;;;;;;;41.92;14.65;;;;;;;4.63;97.85;100256.00;4905596;28;20052;-59
2023/03/30 10:50:28;;;;;;;41.97;14.95;;;;;;;4.61;97.86;100257.72;4895820;28;20475;-59
2023/03/30 10:53:14;;;;;;;43.50;14.45;;;;;;;4.57;98.07;100250.81;4897735;28;20456;-59
2023/03/30 10:55:53;;;;;;;51.15;14.80;;;;;;;4.53;97.89;100230.94;4890029;28;20164;-60
2023/03/30 10:58:42;;;;;;;48.95;14.05;;;;;;;4.56;98.38;100253.38;4893735;28;20782;-59
2023/03/30 11:01:25;;;;;;;39.70;13.65;;;;;;;4.49;98.80;100239.50;4887438;28;20111;-59
2023/03/30 11:04:02;;;;;;;47.20;14.95;;;;;;;4.41;99.10;100238.59;4894992;28;20048;-59
2023/03/30 11:06:54;;;;;;;45.30;15.10;;;;;;;4.41;99.09;100254.97;4894092;28;20053;-60
2023/03/30 11:09:29;;;;;;;49.63;15.95;;;;;;;4.27;100.00;100247.09;4896300;28;20053;-59
2023/03/30 11:12:04;;;;;;;45.03;14.52;;;;;;;4.32;100.00;100255.78;4906036;28;20060;-59
2023/03/30 11:14:47;;;;;;;41.05;14.00;;;;;;;4.32;100.00;100260.09;4897619;28;20096;-60
2023/03/30 11:17:27;;;;;;;40.15;14.52;;;;;;;4.30;100.00;100230.75;4896752;28;20048;-59
2023/03/30 11:19:59;;;;;;;;;;;;;;;4.29;100.00;100242.81;4896341;28;20121;-59
2023/03/30 11:22:37;;;;;;;42.28;12.93;;;;;;;4.29;100.00;100254.88;4905404;28;19939;-59
2023/03/30 11:25:21;;;;;;;41.15;14.35;;;;;;;4.23;100.00;100240.16;4887979;28;20052;-58
2023/03/30 11:27:58;;;;;;;45.10;14.48;;;;;;;4.06;100.00;100226.22;4883291;28;20060;-58
2023/03/30 11:30:37;;;;;;;40.20;13.57;;;;;;;4.24;100.00;100252.25;4882428;28;20041;-58
2023/03/30 11:33:20;;;;;;;35.22;14.35;;;;;;;4.19;100.00;100243.56;4887068;28;20140;-58
2023/03/30 11:36:00;;;;;;;42.67;15.13;;;;;;;4.20;100.00;100250.50;4912229;28;20051;-57
2023/03/30 11:38:43;;;;;;;41.17;14.60;;;;;;;3.98;100.00;100212.34;4906009;28;20048;-59
2023/03/30 11:41:18;;;;;;;39.70;14.70;;;;;;;4.08;100.00;100250.38;4907660;28;20041;-57
2023/03/30 11:43:54;;;;;;;48.15;15.23;;;;;;;4.06;100.00;100241.72;4913989;28;20113;-58
2023/03/30 11:54:15;;;;;;;35.25;12.18;;;;;;;4.10;100.00;100248.66;4888198;28;20475;-57
2023/03/30 11:56:54;;;;;;;44.63;13.25;;;;;;;4.12;100.00;100257.31;4905306;28;20719;-58
2023/03/30 11:59:30;;;;;;;40.97;13.27;;;;;;;4.07;100.00;100238.31;4910014;28;20057;-57
2023/03/30 12:02:28;;;;;;;34.42;12.60;;;;;;;4.13;100.00;100247.84;4916586;28;20045;-58
2023/03/30 12:05:14;;;;;;;39.20;12.00;;;;;;;3.91;100.00;100218.31;4915712;28;20139;-58
2023/03/30 12:07:55;;;;;;;33.90;13.13;;;;;;;4.16;100.00;100264.22;4909778;28;20041;-58
2023/03/30 12:10:37;;;;;;;34.50;12.88;;;;;;;4.12;100.00;100246.97;4903453;28;20048;-58
2023/03/30 12:13:13;;;;;;;45.42;11.95;;;;;;;4.14;100.00;100265.06;4885716;28;20131;-58